sensor_id;sensor_type;location;lat;lon;timestamp;P1;durP1;ratioP1;P2;durP2;ratioP2
37937;SDS011;23763;48.130;11.602;2022-11-20T00:00:08;6.18;;;5.78;;
37937;SDS011;23763;48.130;11.602;2022-11-20T00:02:34;6.07;;;5.78;;
37937;SDS011;23763;48.130;11.602;2022-11-20T00:05:00;6.32;;;5.93;;
37937;SDS011;23763;48.130;11.602;2022-11-20T00:07:26;6.57;;;6.10;;
37937;SDS011;23763;48.130;11.602;2022-11-20T00:09:51;5.88;;;5.57;;
37937;SDS011;23763;48.130;11.602;2022-11-20T00:12:17;6.63;;;6.25;;
37937;SDS011;23763;48.130;11.602;2022-11-20T00:14:42;6.45;;;5.95;;
37937;SDS011;23763;48.130;11.602;2022-11-20T00:17:08;6.65;;;6.25;;
37937;SDS011;23763;48.130;11.602;2022-11-20T00:19:34;6.70;;;6.30;;
37937;SDS011;23763;48.130;11.602;2022-11-20T00:21:59;6.28;;;5.97;;
37937;SDS011;23763;48.130;11.602;2022-11-20T00:24:25;6.47;;;5.93;;
37937;SDS011;23763;48.130;11.602;2022-11-20T00:26:50;6.97;;;6.43;;
37937;SDS011;23763;48.130;11.602;2022-11-20T00:29:16;6.68;;;6.28;;
37937;SDS011;23763;48.130;11.602;2022-11-20T00:31:42;7.25;;;6.75;;
37937;SDS011;23763;48.130;11.602;2022-11-20T00:34:08;6.90;;;6.50;;
37937;SDS011;23763;48.130;11.602;2022-11-20T00:36:34;7.20;;;6.80;;
37937;SDS011;23763;48.130;11.602;2022-11-20T00:39:00;6.72;;;6.32;;
37937;SDS011;23763;48.130;11.602;2022-11-20T00:41:26;6.78;;;6.28;;
37937;SDS011;23763;48.130;11.602;2022-11-20T00:43:53;7.10;;;6.63;;
37937;SDS011;23763;48.130;11.602;2022-11-20T00:46:21;7.03;;;6.53;;
37937;SDS011;23763;48.130;11.602;2022-11-20T00:48:48;6.32;;;6.03;;
37937;SDS011;23763;48.130;11.602;2022-11-20T00:51:15;6.88;;;6.47;;
37937;SDS011;23763;48.130;11.602;2022-11-20T00:53:43;10.77;;;9.68;;
37937;SDS011;23763;48.130;11.602;2022-11-20T00:56:12;11.70;;;10.52;;
37937;SDS011;23763;48.130;11.602;2022-11-20T00:58:41;12.38;;;10.95;;
37937;SDS011;23763;48.130;11.602;2022-11-20T01:01:09;7.28;;;6.72;;
37937;SDS011;23763;48.130;11.602;2022-11-20T01:03:37;7.07;;;6.25;;
37937;SDS011;23763;48.130;11.602;2022-11-20T01:06:09;6.15;;;5.85;;
37937;SDS011;23763;48.130;11.602;2022-11-20T01:08:42;6.78;;;6.28;;
37937;SDS011;23763;48.130;11.602;2022-11-20T01:11:09;6.07;;;5.78;;
37937;SDS011;23763;48.130;11.602;2022-11-20T01:13:37;6.22;;;5.93;;
37937;SDS011;23763;48.130;11.602;2022-11-20T01:16:05;6.72;;;6.20;;
37937;SDS011;23763;48.130;11.602;2022-11-20T01:18:37;6.65;;;6.25;;
37937;SDS011;23763;48.130;11.602;2022-11-20T01:21:05;6.45;;;5.95;;
37937;SDS011;23763;48.130;11.602;2022-11-20T01:23:33;6.57;;;6.15;;
37937;SDS011;23763;48.130;11.602;2022-11-20T01:26:01;7.03;;;6.53;;
37937;SDS011;23763;48.130;11.602;2022-11-20T01:28:38;7.05;;;6.65;;
37937;SDS011;23763;48.130;11.602;2022-11-20T01:31:18;6.57;;;6.18;;
37937;SDS011;23763;48.130;11.602;2022-11-20T01:33:47;7.00;;;6.53;;
37937;SDS011;23763;48.130;11.602;2022-11-20T01:36:14;6.88;;;6.47;;
37937;SDS011;23763;48.130;11.602;2022-11-20T01:38:41;6.65;;;6.28;;
37937;SDS011;23763;48.130;11.602;2022-11-20T01:41:08;6.82;;;6.30;;
37937;SDS011;23763;48.130;11.602;2022-11-20T01:43:34;6.60;;;6.20;;
37937;SDS011;23763;48.130;11.602;2022-11-20T01:46:16;6.90;;;6.50;;
37937;SDS011;23763;48.130;11.602;2022-11-20T01:54:01;6.95;;;6.55;;
37937;SDS011;23763;48.130;11.602;2022-11-20T01:56:30;6.65;;;6.25;;
37937;SDS011;23763;48.130;11.602;2022-11-20T01:58:59;6.82;;;6.43;;
37937;SDS011;23763;48.130;11.602;2022-11-20T02:01:28;6.80;;;6.40;;
37937;SDS011;23763;48.130;11.602;2022-11-20T02:03:53;6.88;;;6.45;;
37937;SDS011;23763;48.130;11.602;2022-11-20T02:06:22;6.57;;;6.18;;
37937;SDS011;23763;48.130;11.602;2022-11-20T02:08:51;6.65;;;6.25;;
37937;SDS011;23763;48.130;11.602;2022-11-20T02:11:17;6.28;;;6.00;;
37937;SDS011;23763;48.130;11.602;2022-11-20T02:13:43;6.50;;;6.10;;
37937;SDS011;23763;48.130;11.602;2022-11-20T02:16:13;6.22;;;5.88;;
37937;SDS011;23763;48.130;11.602;2022-11-20T02:18:51;6.57;;;6.22;;
37937;SDS011;23763;48.130;11.602;2022-11-20T02:24:13;6.75;;;6.35;;
37937;SDS011;23763;48.130;11.602;2022-11-20T02:27:01;6.32;;;6.03;;
37937;SDS011;23763;48.130;11.602;2022-11-20T02:29:34;6.68;;;6.28;;
37937;SDS011;23763;48.130;11.602;2022-11-20T02:34:47;6.25;;;5.95;;
37937;SDS011;23763;48.130;11.602;2022-11-20T02:37:13;6.53;;;6.22;;
37937;SDS011;23763;48.130;11.602;2022-11-20T02:39:39;6.85;;;6.35;;
37937;SDS011;23763;48.130;11.602;2022-11-20T02:42:05;6.28;;;5.88;;
37937;SDS011;23763;48.130;11.602;2022-11-20T02:44:31;6.60;;;6.13;;
37937;SDS011;23763;48.130;11.602;2022-11-20T02:46:57;6.28;;;5.93;;
37937;SDS011;23763;48.130;11.602;2022-11-20T02:49:23;7.07;;;6.68;;
37937;SDS011;23763;48.130;11.602;2022-11-20T02:51:49;6.57;;;6.18;;
37937;SDS011;23763;48.130;11.602;2022-11-20T02:54:15;6.35;;;6.00;;
37937;SDS011;23763;48.130;11.602;2022-11-20T02:56:40;6.47;;;6.07;;
37937;SDS011;23763;48.130;11.602;2022-11-20T02:59:06;6.90;;;6.28;;
37937;SDS011;23763;48.130;11.602;2022-11-20T03:01:32;7.00;;;6.40;;
37937;SDS011;23763;48.130;11.602;2022-11-20T03:03:57;6.88;;;6.47;;
37937;SDS011;23763;48.130;11.602;2022-11-20T03:06:23;6.95;;;6.32;;
37937;SDS011;23763;48.130;11.602;2022-11-20T03:08:49;6.35;;;6.07;;
37937;SDS011;23763;48.130;11.602;2022-11-20T03:11:14;6.60;;;6.20;;
37937;SDS011;23763;48.130;11.602;2022-11-20T03:13:40;6.95;;;6.40;;
37937;SDS011;23763;48.130;11.602;2022-11-20T03:16:16;6.30;;;5.97;;
37937;SDS011;23763;48.130;11.602;2022-11-20T03:18:43;6.47;;;6.18;;
37937;SDS011;23763;48.130;11.602;2022-11-20T03:21:10;7.03;;;6.53;;
37937;SDS011;23763;48.130;11.602;2022-11-20T03:23:36;6.82;;;6.32;;
37937;SDS011;23763;48.130;11.602;2022-11-20T03:26:10;6.47;;;6.03;;
37937;SDS011;23763;48.130;11.602;2022-11-20T03:28:39;6.75;;;6.25;;
37937;SDS011;23763;48.130;11.602;2022-11-20T03:31:05;6.45;;;6.05;;
37937;SDS011;23763;48.130;11.602;2022-11-20T03:33:33;7.03;;;6.55;;
37937;SDS011;23763;48.130;11.602;2022-11-20T03:36:05;6.25;;;6.03;;
37937;SDS011;23763;48.130;11.602;2022-11-20T03:38:32;6.75;;;6.28;;
37937;SDS011;23763;48.130;11.602;2022-11-20T03:40:59;7.05;;;6.65;;
37937;SDS011;23763;48.130;11.602;2022-11-20T03:43:35;6.90;;;6.40;;
37937;SDS011;23763;48.130;11.602;2022-11-20T03:46:02;7.05;;;6.53;;
37937;SDS011;23763;48.130;11.602;2022-11-20T03:48:28;6.65;;;6.25;;
37937;SDS011;23763;48.130;11.602;2022-11-20T03:53:40;6.28;;;5.97;;
37937;SDS011;23763;48.130;11.602;2022-11-20T03:56:09;7.00;;;6.55;;
37937;SDS011;23763;48.130;11.602;2022-11-20T03:58:35;6.97;;;6.47;;
37937;SDS011;23763;48.130;11.602;2022-11-20T04:01:05;7.20;;;6.78;;
37937;SDS011;23763;48.130;11.602;2022-11-20T04:03:35;6.82;;;6.38;;
37937;SDS011;23763;48.130;11.602;2022-11-20T04:06:03;6.70;;;6.20;;
37937;SDS011;23763;48.130;11.602;2022-11-20T04:08:36;7.00;;;6.55;;
37937;SDS011;23763;48.130;11.602;2022-11-20T04:11:09;6.95;;;6.30;;
37937;SDS011;23763;48.130;11.602;2022-11-20T04:13:34;6.57;;;6.18;;
37937;SDS011;23763;48.130;11.602;2022-11-20T04:16:00;7.15;;;6.75;;
37937;SDS011;23763;48.130;11.602;2022-11-20T04:18:26;8.20;;;7.55;;
37937;SDS011;23763;48.130;11.602;2022-11-20T04:20:51;7.90;;;7.30;;
37937;SDS011;23763;48.130;11.602;2022-11-20T04:23:17;7.57;;;7.07;;
37937;SDS011;23763;48.130;11.602;2022-11-20T04:25:42;7.15;;;6.65;;
37937;SDS011;23763;48.130;11.602;2022-11-20T04:28:08;7.20;;;6.70;;
37937;SDS011;23763;48.130;11.602;2022-11-20T04:30:34;6.63;;;6.13;;
37937;SDS011;23763;48.130;11.602;2022-11-20T04:33:00;6.45;;;6.05;;
37937;SDS011;23763;48.130;11.602;2022-11-20T04:35:25;6.45;;;6.15;;
37937;SDS011;23763;48.130;11.602;2022-11-20T04:37:51;6.47;;;6.18;;
37937;SDS011;23763;48.130;11.602;2022-11-20T04:40:17;6.82;;;6.50;;
37937;SDS011;23763;48.130;11.602;2022-11-20T04:42:43;6.70;;;6.30;;
37937;SDS011;23763;48.130;11.602;2022-11-20T04:45:08;6.60;;;6.10;;
37937;SDS011;23763;48.130;11.602;2022-11-20T04:47:34;6.93;;;6.32;;
37937;SDS011;23763;48.130;11.602;2022-11-20T04:50:00;6.30;;;5.93;;
37937;SDS011;23763;48.130;11.602;2022-11-20T04:52:25;6.82;;;6.35;;
37937;SDS011;23763;48.130;11.602;2022-11-20T04:54:51;6.70;;;6.20;;
37937;SDS011;23763;48.130;11.602;2022-11-20T04:57:19;6.57;;;6.18;;
37937;SDS011;23763;48.130;11.602;2022-11-20T04:59:45;7.07;;;6.68;;
37937;SDS011;23763;48.130;11.602;2022-11-20T05:02:11;6.45;;;6.05;;
37937;SDS011;23763;48.130;11.602;2022-11-20T05:04:37;6.65;;;6.25;;
37937;SDS011;23763;48.130;11.602;2022-11-20T05:07:02;6.80;;;6.40;;
37937;SDS011;23763;48.130;11.602;2022-11-20T05:09:28;6.70;;;6.30;;
37937;SDS011;23763;48.130;11.602;2022-11-20T05:11:54;6.85;;;6.45;;
37937;SDS011;23763;48.130;11.602;2022-11-20T05:14:20;6.25;;;5.85;;
37937;SDS011;23763;48.130;11.602;2022-11-20T05:16:45;6.90;;;6.50;;
37937;SDS011;23763;48.130;11.602;2022-11-20T05:19:11;6.60;;;6.20;;
37937;SDS011;23763;48.130;11.602;2022-11-20T05:21:37;6.25;;;5.95;;
37937;SDS011;23763;48.130;11.602;2022-11-20T05:24:02;6.68;;;6.15;;
37937;SDS011;23763;48.130;11.602;2022-11-20T05:26:28;7.00;;;6.57;;
37937;SDS011;23763;48.130;11.602;2022-11-20T05:28:53;7.15;;;6.65;;
37937;SDS011;23763;48.130;11.602;2022-11-20T05:31:20;6.65;;;6.25;;
37937;SDS011;23763;48.130;11.602;2022-11-20T05:33:47;6.35;;;5.95;;
37937;SDS011;23763;48.130;11.602;2022-11-20T05:36:13;6.88;;;6.47;;
37937;SDS011;23763;48.130;11.602;2022-11-20T05:38:39;6.70;;;6.32;;
37937;SDS011;23763;48.130;11.602;2022-11-20T05:41:16;6.03;;;5.72;;
37937;SDS011;23763;48.130;11.602;2022-11-20T05:43:44;6.50;;;5.97;;
37937;SDS011;23763;48.130;11.602;2022-11-20T05:46:11;6.88;;;6.50;;
37937;SDS011;23763;48.130;11.602;2022-11-20T05:48:39;7.13;;;6.72;;
37937;SDS011;23763;48.130;11.602;2022-11-20T05:51:06;5.85;;;5.65;;
37937;SDS011;23763;48.130;11.602;2022-11-20T05:53:33;6.45;;;6.05;;
37937;SDS011;23763;48.130;11.602;2022-11-20T05:56:00;6.65;;;6.25;;
37937;SDS011;23763;48.130;11.602;2022-11-20T05:58:27;6.57;;;6.18;;
37937;SDS011;23763;48.130;11.602;2022-11-20T06:00:53;7.38;;;6.78;;
37937;SDS011;23763;48.130;11.602;2022-11-20T06:03:19;6.97;;;6.38;;
37937;SDS011;23763;48.130;11.602;2022-11-20T06:05:45;6.65;;;6.10;;
37937;SDS011;23763;48.130;11.602;2022-11-20T06:08:11;6.97;;;6.57;;
37937;SDS011;23763;48.130;11.602;2022-11-20T06:10:36;6.60;;;6.28;;
37937;SDS011;23763;48.130;11.602;2022-11-20T06:13:02;6.78;;;6.38;;
37937;SDS011;23763;48.130;11.602;2022-11-20T06:15:28;6.70;;;6.30;;
37937;SDS011;23763;48.130;11.602;2022-11-20T06:17:53;6.45;;;6.15;;
37937;SDS011;23763;48.130;11.602;2022-11-20T06:20:20;7.22;;;6.72;;
37937;SDS011;23763;48.130;11.602;2022-11-20T06:22:46;5.95;;;5.65;;
37937;SDS011;23763;48.130;11.602;2022-11-20T06:25:12;6.90;;;6.32;;
37937;SDS011;23763;48.130;11.602;2022-11-20T06:27:38;6.22;;;5.90;;
37937;SDS011;23763;48.130;11.602;2022-11-20T06:30:04;6.70;;;6.20;;
37937;SDS011;23763;48.130;11.602;2022-11-20T06:32:30;6.28;;;5.88;;
37937;SDS011;23763;48.130;11.602;2022-11-20T06:34:56;6.50;;;6.15;;
37937;SDS011;23763;48.130;11.602;2022-11-20T06:37:21;6.38;;;5.97;;
37937;SDS011;23763;48.130;11.602;2022-11-20T06:39:48;6.15;;;5.93;;
37937;SDS011;23763;48.130;11.602;2022-11-20T06:42:13;6.10;;;5.70;;
37937;SDS011;23763;48.130;11.602;2022-11-20T06:44:41;6.07;;;5.78;;
37937;SDS011;23763;48.130;11.602;2022-11-20T06:47:07;6.55;;;6.15;;
37937;SDS011;23763;48.130;11.602;2022-11-20T06:49:32;6.13;;;5.82;;
37937;SDS011;23763;48.130;11.602;2022-11-20T06:51:59;5.93;;;5.63;;
37937;SDS011;23763;48.130;11.602;2022-11-20T06:54:24;6.53;;;6.22;;
37937;SDS011;23763;48.130;11.602;2022-11-20T06:56:50;6.10;;;5.80;;
37937;SDS011;23763;48.130;11.602;2022-11-20T06:59:16;5.90;;;5.60;;
37937;SDS011;23763;48.130;11.602;2022-11-20T07:01:41;5.95;;;5.55;;
37937;SDS011;23763;48.130;11.602;2022-11-20T07:04:07;5.95;;;5.55;;
37937;SDS011;23763;48.130;11.602;2022-11-20T07:06:32;5.90;;;5.60;;
37937;SDS011;23763;48.130;11.602;2022-11-20T07:08:58;5.82;;;5.53;;
37937;SDS011;23763;48.130;11.602;2022-11-20T07:11:24;6.05;;;5.65;;
37937;SDS011;23763;48.130;11.602;2022-11-20T07:13:49;5.60;;;5.40;;
37937;SDS011;23763;48.130;11.602;2022-11-20T07:16:15;5.45;;;5.15;;
37937;SDS011;23763;48.130;11.602;2022-11-20T07:18:41;5.72;;;5.43;;
37937;SDS011;23763;48.130;11.602;2022-11-20T07:21:07;5.88;;;5.57;;
37937;SDS011;23763;48.130;11.602;2022-11-20T07:23:35;6.22;;;5.75;;
37937;SDS011;23763;48.130;11.602;2022-11-20T07:26:04;5.90;;;5.60;;
37937;SDS011;23763;48.130;11.602;2022-11-20T07:28:35;6.22;;;5.82;;
37937;SDS011;23763;48.130;11.602;2022-11-20T07:31:01;6.55;;;6.10;;
37937;SDS011;23763;48.130;11.602;2022-11-20T07:33:27;6.82;;;6.43;;
37937;SDS011;23763;48.130;11.602;2022-11-20T07:35:53;7.10;;;6.50;;
37937;SDS011;23763;48.130;11.602;2022-11-20T07:38:19;7.18;;;6.78;;
37937;SDS011;23763;48.130;11.602;2022-11-20T07:40:44;6.78;;;6.32;;
37937;SDS011;23763;48.130;11.602;2022-11-20T07:43:10;6.68;;;6.28;;
37937;SDS011;23763;48.130;11.602;2022-11-20T07:45:36;6.43;;;5.93;;
37937;SDS011;23763;48.130;11.602;2022-11-20T07:48:02;6.68;;;6.28;;
37937;SDS011;23763;48.130;11.602;2022-11-20T07:50:28;6.38;;;5.97;;
37937;SDS011;23763;48.130;11.602;2022-11-20T07:53:15;6.05;;;5.75;;
37937;SDS011;23763;48.130;11.602;2022-11-20T07:55:45;6.20;;;5.90;;
37937;SDS011;23763;48.130;11.602;2022-11-20T07:58:11;6.85;;;6.35;;
37937;SDS011;23763;48.130;11.602;2022-11-20T08:00:37;6.15;;;5.82;;
37937;SDS011;23763;48.130;11.602;2022-11-20T08:03:06;5.93;;;5.63;;
37937;SDS011;23763;48.130;11.602;2022-11-20T08:05:32;6.32;;;5.93;;
37937;SDS011;23763;48.130;11.602;2022-11-20T08:07:58;6.53;;;6.10;;
37937;SDS011;23763;48.130;11.602;2022-11-20T08:10:23;6.60;;;6.30;;
37937;SDS011;23763;48.130;11.602;2022-11-20T08:12:51;5.90;;;5.60;;
37937;SDS011;23763;48.130;11.602;2022-11-20T08:15:37;6.28;;;5.97;;
37937;SDS011;23763;48.130;11.602;2022-11-20T08:18:07;6.03;;;5.72;;
37937;SDS011;23763;48.130;11.602;2022-11-20T08:20:34;6.70;;;6.28;;
37937;SDS011;23763;48.130;11.602;2022-11-20T08:23:00;7.07;;;6.60;;
37937;SDS011;23763;48.130;11.602;2022-11-20T08:25:28;7.22;;;6.63;;
37937;SDS011;23763;48.130;11.602;2022-11-20T08:27:56;6.47;;;6.07;;
37937;SDS011;23763;48.130;11.602;2022-11-20T08:30:25;6.50;;;6.20;;
37937;SDS011;23763;48.130;11.602;2022-11-20T08:32:52;6.45;;;6.15;;
37937;SDS011;23763;48.130;11.602;2022-11-20T08:35:18;6.95;;;6.30;;
37937;SDS011;23763;48.130;11.602;2022-11-20T08:37:47;7.25;;;6.85;;
37937;SDS011;23763;48.130;11.602;2022-11-20T08:40:13;6.00;;;5.70;;
37937;SDS011;23763;48.130;11.602;2022-11-20T08:42:46;6.10;;;5.70;;
37937;SDS011;23763;48.130;11.602;2022-11-20T08:45:12;6.85;;;6.45;;
37937;SDS011;23763;48.130;11.602;2022-11-20T08:47:38;7.45;;;6.95;;
37937;SDS011;23763;48.130;11.602;2022-11-20T08:50:04;7.07;;;6.68;;
37937;SDS011;23763;48.130;11.602;2022-11-20T08:52:30;6.50;;;6.20;;
37937;SDS011;23763;48.130;11.602;2022-11-20T08:54:55;7.22;;;6.63;;
37937;SDS011;23763;48.130;11.602;2022-11-20T08:57:21;6.78;;;6.30;;
37937;SDS011;23763;48.130;11.602;2022-11-20T08:59:47;7.00;;;6.60;;
37937;SDS011;23763;48.130;11.602;2022-11-20T09:02:12;7.18;;;6.78;;
37937;SDS011;23763;48.130;11.602;2022-11-20T09:04:38;6.55;;;6.22;;
37937;SDS011;23763;48.130;11.602;2022-11-20T09:07:04;6.57;;;6.05;;
37937;SDS011;23763;48.130;11.602;2022-11-20T09:09:29;6.20;;;5.80;;
37937;SDS011;23763;48.130;11.602;2022-11-20T09:11:55;6.38;;;6.07;;
37937;SDS011;23763;48.130;11.602;2022-11-20T09:14:21;6.50;;;6.20;;
37937;SDS011;23763;48.130;11.602;2022-11-20T09:16:49;6.38;;;5.97;;
37937;SDS011;23763;48.130;11.602;2022-11-20T09:19:15;6.20;;;5.88;;
37937;SDS011;23763;48.130;11.602;2022-11-20T09:21:40;5.90;;;5.60;;
37937;SDS011;23763;48.130;11.602;2022-11-20T09:24:06;6.00;;;5.70;;
37937;SDS011;23763;48.130;11.602;2022-11-20T09:26:32;6.22;;;5.93;;
37937;SDS011;23763;48.130;11.602;2022-11-20T09:28:57;6.63;;;6.22;;
37937;SDS011;23763;48.130;11.602;2022-11-20T09:31:24;6.90;;;6.22;;
37937;SDS011;23763;48.130;11.602;2022-11-20T09:33:50;6.88;;;6.38;;
37937;SDS011;23763;48.130;11.602;2022-11-20T09:36:16;6.15;;;5.80;;
37937;SDS011;23763;48.130;11.602;2022-11-20T09:38:43;5.70;;;5.40;;
37937;SDS011;23763;48.130;11.602;2022-11-20T09:41:31;6.22;;;5.93;;
37937;SDS011;23763;48.130;11.602;2022-11-20T09:52:28;6.13;;;5.75;;
37937;SDS011;23763;48.130;11.602;2022-11-20T09:55:17;6.03;;;5.72;;
37937;SDS011;23763;48.130;11.602;2022-11-20T09:57:44;5.90;;;5.60;;
37937;SDS011;23763;48.130;11.602;2022-11-20T10:00:13;6.30;;;5.90;;
37937;SDS011;23763;48.130;11.602;2022-11-20T10:07:48;5.57;;;5.38;;
37937;SDS011;23763;48.130;11.602;2022-11-20T10:10:28;6.07;;;5.78;;
37937;SDS011;23763;48.130;11.602;2022-11-20T10:13:14;5.97;;;5.68;;
37937;SDS011;23763;48.130;11.602;2022-11-20T10:21:16;6.15;;;5.85;;
37937;SDS011;23763;48.130;11.602;2022-11-20T10:27:08;6.07;;;5.78;;
37937;SDS011;23763;48.130;11.602;2022-11-20T10:30:08;6.28;;;5.97;;
37937;SDS011;23763;48.130;11.602;2022-11-20T10:32:37;5.65;;;5.38;;
37937;SDS011;23763;48.130;11.602;2022-11-20T10:35:07;5.65;;;5.35;;
37937;SDS011;23763;48.130;11.602;2022-11-20T10:37:54;6.38;;;5.97;;
37937;SDS011;23763;48.130;11.602;2022-11-20T10:43:01;5.80;;;5.40;;
37937;SDS011;23763;48.130;11.602;2022-11-20T10:50:37;6.18;;;5.75;;
37937;SDS011;23763;48.130;11.602;2022-11-20T11:01:25;5.28;;;5.07;;
37937;SDS011;23763;48.130;11.602;2022-11-20T11:03:52;5.80;;;5.40;;
37937;SDS011;23763;48.130;11.602;2022-11-20T11:06:39;5.88;;;5.50;;
37937;SDS011;23763;48.130;11.602;2022-11-20T11:09:11;5.82;;;5.60;;
37937;SDS011;23763;48.130;11.602;2022-11-20T11:11:42;5.97;;;5.68;;
37937;SDS011;23763;48.130;11.602;2022-11-20T11:14:09;5.68;;;5.18;;
37937;SDS011;23763;48.130;11.602;2022-11-20T11:16:48;7.95;;;7.25;;
37937;SDS011;23763;48.130;11.602;2022-11-20T11:19:19;6.88;;;6.47;;
37937;SDS011;23763;48.130;11.602;2022-11-20T11:21:52;6.22;;;5.80;;
37937;SDS011;23763;48.130;11.602;2022-11-20T11:24:20;6.07;;;5.78;;
37937;SDS011;23763;48.130;11.602;2022-11-20T11:26:52;5.82;;;5.53;;
37937;SDS011;23763;48.130;11.602;2022-11-20T11:29:24;6.18;;;5.78;;
37937;SDS011;23763;48.130;11.602;2022-11-20T11:32:08;5.63;;;5.22;;
37937;SDS011;23763;48.130;11.602;2022-11-20T11:34:37;5.97;;;5.57;;
37937;SDS011;23763;48.130;11.602;2022-11-20T11:37:03;5.80;;;5.53;;
37937;SDS011;23763;48.130;11.602;2022-11-20T11:39:31;5.97;;;5.68;;
37937;SDS011;23763;48.130;11.602;2022-11-20T11:41:58;5.65;;;5.35;;
37937;SDS011;23763;48.130;11.602;2022-11-20T11:44:32;5.70;;;5.50;;
37937;SDS011;23763;48.130;11.602;2022-11-20T11:49:48;6.28;;;5.82;;
37937;SDS011;23763;48.130;11.602;2022-11-20T11:52:18;5.93;;;5.53;;
37937;SDS011;23763;48.130;11.602;2022-11-20T11:54:57;5.72;;;5.43;;
37937;SDS011;23763;48.130;11.602;2022-11-20T12:00:12;6.10;;;5.80;;
37937;SDS011;23763;48.130;11.602;2022-11-20T12:05:16;6.38;;;5.97;;
37937;SDS011;23763;48.130;11.602;2022-11-20T12:07:46;5.75;;;5.55;;
37937;SDS011;23763;48.130;11.602;2022-11-20T12:12:54;6.10;;;5.80;;
37937;SDS011;23763;48.130;11.602;2022-11-20T12:15:27;6.47;;;6.18;;
37937;SDS011;23763;48.130;11.602;2022-11-20T12:17:55;6.47;;;6.15;;
37937;SDS011;23763;48.130;11.602;2022-11-20T12:20:33;6.68;;;6.15;;
37937;SDS011;23763;48.130;11.602;2022-11-20T12:25:39;6.00;;;5.70;;
37937;SDS011;23763;48.130;11.602;2022-11-20T12:48:27;6.60;;;6.30;;
37937;SDS011;23763;48.130;11.602;2022-11-20T12:53:43;6.43;;;6.03;;
37937;SDS011;23763;48.130;11.602;2022-11-20T13:07:05;6.65;;;6.10;;
37937;SDS011;23763;48.130;11.602;2022-11-20T13:09:36;6.05;;;5.75;;
37937;SDS011;23763;48.130;11.602;2022-11-20T13:12:17;6.63;;;6.28;;
37937;SDS011;23763;48.130;11.602;2022-11-20T13:17:54;6.28;;;5.97;;
37937;SDS011;23763;48.130;11.602;2022-11-20T13:20:23;6.07;;;5.85;;
37937;SDS011;23763;48.130;11.602;2022-11-20T13:22:53;6.00;;;5.70;;
37937;SDS011;23763;48.130;11.602;2022-11-20T13:25:22;6.72;;;6.32;;
37937;SDS011;23763;48.130;11.602;2022-11-20T13:27:51;6.70;;;6.30;;
37937;SDS011;23763;48.130;11.602;2022-11-20T13:30:36;6.55;;;6.15;;
37937;SDS011;23763;48.130;11.602;2022-11-20T13:36:06;6.68;;;6.28;;
37937;SDS011;23763;48.130;11.602;2022-11-20T13:38:49;7.18;;;6.57;;
37937;SDS011;23763;48.130;11.602;2022-11-20T13:41:29;6.65;;;6.35;;
37937;SDS011;23763;48.130;11.602;2022-11-20T13:46:36;6.95;;;6.57;;
37937;SDS011;23763;48.130;11.602;2022-11-20T13:49:22;6.93;;;6.47;;
37937;SDS011;23763;48.130;11.602;2022-11-20T14:00:31;6.70;;;6.28;;
37937;SDS011;23763;48.130;11.602;2022-11-20T14:03:12;7.60;;;7.10;;
37937;SDS011;23763;48.130;11.602;2022-11-20T14:05:51;7.32;;;6.93;;
37937;SDS011;23763;48.130;11.602;2022-11-20T14:11:14;8.10;;;7.65;;
37937;SDS011;23763;48.130;11.602;2022-11-20T14:13:49;6.95;;;6.57;;
37937;SDS011;23763;48.130;11.602;2022-11-20T14:16:24;7.10;;;6.80;;
37937;SDS011;23763;48.130;11.602;2022-11-20T14:18:52;6.78;;;6.38;;
37937;SDS011;23763;48.130;11.602;2022-11-20T14:21:26;7.28;;;6.88;;
37937;SDS011;23763;48.130;11.602;2022-11-20T14:23:54;7.13;;;6.65;;
37937;SDS011;23763;48.130;11.602;2022-11-20T14:26:29;6.38;;;6.05;;
37937;SDS011;23763;48.130;11.602;2022-11-20T14:28:56;6.97;;;6.60;;
37937;SDS011;23763;48.130;11.602;2022-11-20T14:31:25;6.78;;;6.30;;
37937;SDS011;23763;48.130;11.602;2022-11-20T14:33:53;6.25;;;6.03;;
37937;SDS011;23763;48.130;11.602;2022-11-20T14:36:20;6.55;;;6.25;;
37937;SDS011;23763;48.130;11.602;2022-11-20T14:38:48;6.75;;;6.38;;
37937;SDS011;23763;48.130;11.602;2022-11-20T14:41:19;6.97;;;6.50;;
37937;SDS011;23763;48.130;11.602;2022-11-20T14:43:48;6.50;;;6.20;;
37937;SDS011;23763;48.130;11.602;2022-11-20T14:46:21;6.57;;;6.28;;
37937;SDS011;23763;48.130;11.602;2022-11-20T14:48:51;6.80;;;6.40;;
37937;SDS011;23763;48.130;11.602;2022-11-20T14:51:25;6.43;;;6.10;;
37937;SDS011;23763;48.130;11.602;2022-11-20T14:53:52;6.78;;;6.32;;
37937;SDS011;23763;48.130;11.602;2022-11-20T14:56:22;6.50;;;6.10;;
37937;SDS011;23763;48.130;11.602;2022-11-20T14:58:55;6.63;;;6.22;;
37937;SDS011;23763;48.130;11.602;2022-11-20T15:01:26;6.68;;;6.35;;
37937;SDS011;23763;48.130;11.602;2022-11-20T15:04:00;6.50;;;6.20;;
37937;SDS011;23763;48.130;11.602;2022-11-20T15:06:34;6.22;;;5.88;;
37937;SDS011;23763;48.130;11.602;2022-11-20T15:09:02;6.18;;;5.88;;
37937;SDS011;23763;48.130;11.602;2022-11-20T15:11:29;6.30;;;6.10;;
37937;SDS011;23763;48.130;11.602;2022-11-20T15:13:57;6.32;;;6.03;;
37937;SDS011;23763;48.130;11.602;2022-11-20T15:16:34;5.70;;;5.40;;
37937;SDS011;23763;48.130;11.602;2022-11-20T15:19:03;6.40;;;6.10;;
37937;SDS011;23763;48.130;11.602;2022-11-20T15:21:59;5.80;;;5.60;;
37937;SDS011;23763;48.130;11.602;2022-11-20T15:24:25;6.50;;;6.18;;
37937;SDS011;23763;48.130;11.602;2022-11-20T15:26:57;6.38;;;6.07;;
37937;SDS011;23763;48.130;11.602;2022-11-20T15:29:22;9.07;;;8.18;;
37937;SDS011;23763;48.130;11.602;2022-11-20T15:31:58;6.60;;;6.30;;
37937;SDS011;23763;48.130;11.602;2022-11-20T15:34:27;7.32;;;6.82;;
37937;SDS011;23763;48.130;11.602;2022-11-20T15:36:53;6.90;;;6.55;;
37937;SDS011;23763;48.130;11.602;2022-11-20T15:39:19;6.90;;;6.50;;
37937;SDS011;23763;48.130;11.602;2022-11-20T15:41:48;7.38;;;6.97;;
37937;SDS011;23763;48.130;11.602;2022-11-20T15:44:16;7.93;;;7.38;;
37937;SDS011;23763;48.130;11.602;2022-11-20T15:46:46;7.47;;;7.00;;
37937;SDS011;23763;48.130;11.602;2022-11-20T15:49:15;6.65;;;6.35;;
37937;SDS011;23763;48.130;11.602;2022-11-20T15:51:47;7.25;;;6.88;;
37937;SDS011;23763;48.130;11.602;2022-11-20T15:54:15;7.35;;;6.95;;
37937;SDS011;23763;48.130;11.602;2022-11-20T15:56:45;7.55;;;7.00;;
37937;SDS011;23763;48.130;11.602;2022-11-20T15:59:12;7.53;;;7.03;;
37937;SDS011;23763;48.130;11.602;2022-11-20T16:01:39;9.15;;;8.35;;
37937;SDS011;23763;48.130;11.602;2022-11-20T16:04:10;8.55;;;7.70;;
37937;SDS011;23763;48.130;11.602;2022-11-20T16:06:37;8.25;;;7.75;;
37937;SDS011;23763;48.130;11.602;2022-11-20T16:09:02;8.93;;;8.23;;
37937;SDS011;23763;48.130;11.602;2022-11-20T16:11:28;7.28;;;6.88;;
37937;SDS011;23763;48.130;11.602;2022-11-20T16:13:54;8.10;;;7.50;;
37937;SDS011;23763;48.130;11.602;2022-11-20T16:16:38;8.45;;;7.65;;
37937;SDS011;23763;48.130;11.602;2022-11-20T16:19:09;7.30;;;6.90;;
37937;SDS011;23763;48.130;11.602;2022-11-20T16:21:35;8.95;;;7.90;;
37937;SDS011;23763;48.130;11.602;2022-11-20T16:24:05;8.52;;;8.00;;
37937;SDS011;23763;48.130;11.602;2022-11-20T16:26:33;8.10;;;7.70;;
37937;SDS011;23763;48.130;11.602;2022-11-20T16:28:59;8.70;;;7.82;;
37937;SDS011;23763;48.130;11.602;2022-11-20T16:31:32;7.80;;;7.25;;
37937;SDS011;23763;48.130;11.602;2022-11-20T16:34:05;8.13;;;7.60;;
37937;SDS011;23763;48.130;11.602;2022-11-20T16:39:13;8.45;;;7.88;;
37937;SDS011;23763;48.130;11.602;2022-11-20T16:41:43;8.82;;;8.25;;
37937;SDS011;23763;48.130;11.602;2022-11-20T16:44:09;8.30;;;7.70;;